Time;durP1;ratioP1;P1;durP2;ratioP2;P2;SDS_P1;SDS_P2;PMS_P1;PMS_P2;Temp;Humidity;BMP_temperature;BMP_pressure;BME280_temperature;BME280_humidity;BME280_pressure;Samples;Min_cycle;Max_cycle;Signal;HPM_P1;HPM_P2
2022/08/30 00:01:01;;;;;;;7.03;3.93;;;;;;;;;;5015219;28;20182;-67
2022/08/30 00:03:28;;;;;;;10.13;4.07;;;;;;;;;;5015093;28;20634;-67
2022/08/30 00:05:54;;;;;;;7.13;3.90;;;;;;;;;;5013647;28;20203;-66
2022/08/30 00:08:20;;;;;;;8.80;4.47;;;;;;;;;;5013627;28;20245;-67
2022/08/30 00:10:47;;;;;;;10.17;3.77;;;;;;;;;;5013666;28;20250;-67
2022/08/30 00:13:13;;;;;;;10.13;4.57;;;;;;;;;;5015110;28;20200;-67
2022/08/30 00:15:41;;;;;;;8.73;4.30;;;;;;;;;;5015009;28;20180;-67
2022/08/30 00:18:07;;;;;;;7.47;3.40;;;;;;;;;;5013515;28;20179;-67
2022/08/30 00:20:33;;;;;;;6.53;3.83;;;;;;;;;;5013514;28;20188;-67
2022/08/30 00:22:59;;;;;;;8.40;4.17;;;;;;;;;;5014615;28;20204;-67
2022/08/30 00:25:26;;;;;;;6.30;3.40;;;;;;;;;;5014859;28;20211;-66
2022/08/30 00:27:52;;;;;;;6.53;3.60;;;;;;;;;;5014664;28;20206;-68
2022/08/30 00:30:19;;;;;;;5.63;3.60;;;;;;;;;;5013220;28;20195;-66
2022/08/30 00:32:45;;;;;;;6.43;3.47;;;;;;;;;;5013304;28;20192;-66
2022/08/30 00:35:12;;;;;;;5.37;3.20;;;;;;;;;;5015273;28;20707;-66
2022/08/30 00:37:38;;;;;;;6.03;3.60;;;;;;;;;;5014888;28;20199;-66
2022/08/30 00:40:04;;;;;;;4.47;3.23;;;;;;;;;;5013156;28;20216;-67
2022/08/30 00:42:31;;;;;;;8.03;3.60;;;;;;;;;;5013414;28;20183;-66
2022/08/30 00:44:58;;;;;;;3.60;3.10;;;;;;;;;;5012835;28;20207;-67
2022/08/30 00:47:24;;;;;;;9.20;3.50;;;;;;;;;;5014250;28;20178;-67
2022/08/30 00:49:54;;;;;;;6.27;3.40;;;;;;;;;;5014183;28;20172;-66
2022/08/30 00:52:21;;;;;;;6.47;3.43;;;;;;;;;;5014390;28;20176;-67
2022/08/30 00:54:47;;;;;;;4.17;3.40;;;;;;;;;;5014098;28;20260;-67
2022/08/30 00:57:14;;;;;;;3.97;2.60;;;;;;;;;;5014087;28;20191;-66
2022/08/30 00:59:41;;;;;;;6.77;3.37;;;;;;;;;;5012681;28;20191;-66
2022/08/30 01:02:07;;;;;;;5.37;3.13;;;;;;;;;;5012655;28;20219;-68
2022/08/30 01:04:33;;;;;;;4.40;3.10;;;;;;;;;;5012499;28;20270;-66
2022/08/30 01:06:59;;;;;;;5.07;3.30;;;;;;;;;;5014040;28;20254;-66
2022/08/30 01:09:25;;;;;;;5.17;3.07;;;;;;;;;;5013805;28;20225;-67
2022/08/30 01:11:52;;;;;;;4.87;2.90;;;;;;;;;;5013794;28;20180;-69
2022/08/30 01:14:20;;;;;;;5.30;3.23;;;;;;;;;;5012280;28;20196;-67
2022/08/30 01:16:46;;;;;;;3.43;2.90;;;;;;;;;;5013741;28;20187;-67
2022/08/30 01:19:18;;;;;;;4.87;2.80;;;;;;;;;;5012428;28;20190;-66
2022/08/30 01:21:49;;;;;;;3.80;3.20;;;;;;;;;;5012417;28;20212;-66
2022/08/30 01:24:16;;;;;;;4.60;3.10;;;;;;;;;;5013640;28;20286;-67
2022/08/30 01:26:42;;;;;;;3.63;3.00;;;;;;;;;;5012254;28;20550;-66
2022/08/30 01:29:10;;;;;;;4.03;3.20;;;;;;;;;;5013519;28;20173;-67
2022/08/30 01:31:36;;;;;;;4.07;2.63;;;;;;;;;;5012222;28;20532;-66
2022/08/30 01:34:06;;;;;;;5.67;2.60;;;;;;;;;;5013481;28;20246;-67
2022/08/30 01:36:33;;;;;;;5.20;3.20;;;;;;;;;;5013506;28;20556;-66
2022/08/30 01:38:58;;;;;;;10.53;3.47;;;;;;;;;;5013442;28;20180;-66
2022/08/30 01:41:26;;;;;;;3.87;2.90;;;;;;;;;;5013424;28;20183;-66
2022/08/30 01:43:54;;;;;;;4.43;3.00;;;;;;;;;;5013672;28;20200;-66
2022/08/30 01:46:23;;;;;;;4.77;2.80;;;;;;;;;;5011987;28;20204;-67
2022/08/30 01:48:49;;;;;;;5.27;2.93;;;;;;;;;;5013582;28;20645;-67
2022/08/30 01:51:15;;;;;;;10.17;3.70;;;;;;;;;;5013276;28;20187;-68
2022/08/30 01:53:42;;;;;;;6.93;3.73;;;;;;;;;;5013167;28;20195;-68
2022/08/30 01:56:09;;;;;;;4.07;2.90;;;;;;;;;;5013716;28;20574;-69
2022/08/30 01:58:35;;;;;;;4.43;3.17;;;;;;;;;;5017711;28;20215;-66
2022/08/30 02:01:02;;;;;;;3.30;2.73;;;;;;;;;;5017266;28;20175;-67
2022/08/30 02:03:33;;;;;;;4.53;3.30;;;;;;;;;;5015750;28;20318;-67
2022/08/30 02:06:03;;;;;;;5.83;3.50;;;;;;;;;;5017752;28;20200;-69
2022/08/30 02:08:29;;;;;;;7.10;4.63;;;;;;;;;;5015850;28;20190;-67
2022/08/30 02:10:56;;;;;;;11.27;5.73;;;;;;;;;;5017426;28;20547;-66
2022/08/30 02:13:22;;;;;;;8.73;6.07;;;;;;;;;;5016984;28;20191;-66
2022/08/30 02:15:48;;;;;;;7.37;5.40;;;;;;;;;;5015774;28;20198;-67
2022/08/30 02:18:14;;;;;;;8.77;5.10;;;;;;;;;;5017015;28;20184;-67
2022/08/30 02:20:40;;;;;;;9.00;4.50;;;;;;;;;;5017237;28;20191;-66
2022/08/30 02:23:06;;;;;;;8.13;3.97;;;;;;;;;;5015637;28;20227;-66
2022/08/30 02:25:32;;;;;;;5.17;3.23;;;;;;;;;;5017110;28;20668;-67
2022/08/30 02:27:58;;;;;;;4.63;3.33;;;;;;;;;;5017084;28;20585;-66
2022/08/30 02:30:24;;;;;;;6.37;3.57;;;;;;;;;;5016890;28;20184;-66
2022/08/30 02:32:50;;;;;;;4.33;3.00;;;;;;;;;;5015439;28;20206;-67
2022/08/30 02:35:16;;;;;;;4.87;3.80;;;;;;;;;;5015471;28;20314;-66
2022/08/30 02:37:42;;;;;;;5.03;3.13;;;;;;;;;;5017206;28;20180;-66
2022/08/30 02:40:08;;;;;;;5.87;3.60;;;;;;;;;;5016896;28;20667;-67
2022/08/30 02:42:34;;;;;;;4.27;3.43;;;;;;;;;;5016485;28;20262;-67
2022/08/30 02:45:00;;;;;;;4.70;3.30;;;;;;;;;;5015155;28;20273;-66
2022/08/30 02:47:26;;;;;;;4.87;3.47;;;;;;;;;;5015213;28;20652;-66
2022/08/30 02:49:52;;;;;;;4.50;3.20;;;;;;;;;;5016503;28;20180;-69
2022/08/30 02:52:18;;;;;;;5.30;3.70;;;;;;;;;;5016330;28;20204;-66
2022/08/30 02:54:45;;;;;;;7.53;3.23;;;;;;;;;;5016457;28;20179;-66
2022/08/30 02:57:12;;;;;;;4.10;3.40;;;;;;;;;;5015112;28;20246;-69
2022/08/30 02:59:42;;;;;;;8.53;3.90;;;;;;;;;;5015283;28;20230;-69
2022/08/30 03:02:08;;;;;;;10.27;3.53;;;;;;;;;;5015065;28;20227;-69
2022/08/30 03:04:34;;;;;;;4.00;3.40;;;;;;;;;;5014827;28;20230;-66
2022/08/30 03:07:01;;;;;;;6.00;3.27;;;;;;;;;;5015095;28;20200;-66
2022/08/30 03:09:26;;;;;;;4.03;3.60;;;;;;;;;;5015904;28;20644;-66
2022/08/30 03:11:52;;;;;;;4.27;3.50;;;;;;;;;;5016494;28;20202;-69
2022/08/30 03:14:18;;;;;;;5.30;3.83;;;;;;;;;;5015895;28;20204;-66
2022/08/30 03:16:44;;;;;;;4.73;3.60;;;;;;;;;;5014684;28;20191;-67
2022/08/30 03:19:10;;;;;;;6.27;4.13;;;;;;;;;;5015854;28;20206;-69
2022/08/30 03:21:37;;;;;;;5.20;3.73;;;;;;;;;;5016144;28;20176;-67
2022/08/30 03:24:03;;;;;;;7.43;3.83;;;;;;;;;;5015716;28;20664;-67
2022/08/30 03:26:29;;;;;;;6.70;4.23;;;;;;;;;;5015691;28;20234;-67
2022/08/30 03:28:55;;;;;;;10.63;3.77;;;;;;;;;;5014420;28;20783;-67
2022/08/30 03:31:21;;;;;;;4.13;3.47;;;;;;;;;;5014371;28;20274;-67
2022/08/30 03:33:47;;;;;;;5.23;3.20;;;;;;;;;;5015476;28;20196;-68
2022/08/30 03:36:13;;;;;;;4.00;3.13;;;;;;;;;;5015732;28;20199;-67
2022/08/30 03:38:39;;;;;;;3.80;3.47;;;;;;;;;;5015613;28;20184;-66
2022/08/30 03:41:05;;;;;;;4.00;3.30;;;;;;;;;;5015482;28;20648;-67
2022/08/30 03:43:32;;;;;;;7.53;3.30;;;;;;;;;;5015586;28;20191;-67
2022/08/30 03:45:58;;;;;;;6.33;3.63;;;;;;;;;;5015287;28;20199;-67
2022/08/30 03:48:25;;;;;;;6.23;3.37;;;;;;;;;;5015688;28;20195;-67
2022/08/30 03:50:51;;;;;;;4.83;3.60;;;;;;;;;;5015295;28;20203;-67
2022/08/30 03:53:17;;;;;;;4.93;3.77;;;;;;;;;;5013897;28;20251;-67
2022/08/30 03:55:43;;;;;;;6.17;3.97;;;;;;;;;;5015206;28;20184;-67
2022/08/30 03:58:09;;;;;;;4.87;3.80;;;;;;;;;;5013930;28;20184;-67
2022/08/30 04:00:34;;;;;;;5.77;4.07;;;;;;;;;;5015105;28;20671;-68
2022/08/30 04:03:00;;;;;;;6.33;4.50;;;;;;;;;;5014919;28;20286;-67
2022/08/30 04:05:26;;;;;;;4.47;4.07;;;;;;;;;;5015181;28;20649;-68
2022/08/30 04:07:52;;;;;;;8.07;3.90;;;;;;;;;;5014977;28;20179;-67
2022/08/30 04:10:22;;;;;;;5.13;4.23;;;;;;;;;;5013702;28;20230;-67
2022/08/30 04:12:48;;;;;;;8.90;4.33;;;;;;;;;;5013589;28;20621;-67
2022/08/30 04:15:15;;;;;;;6.33;4.67;;;;;;;;;;5013587;28;20180;-67
2022/08/30 04:17:41;;;;;;;5.30;3.87;;;;;;;;;;5014915;28;20181;-67
2022/08/30 04:20:07;;;;;;;5.30;3.93;;;;;;;;;;5013279;28;20180;-67
2022/08/30 04:22:33;;;;;;;11.13;5.33;;;;;;;;;;5015594;28;20176;-67
2022/08/30 04:24:59;;;;;;;8.23;5.30;;;;;;;;;;5020088;28;20721;-68
2022/08/30 04:27:25;;;;;;;11.20;6.90;;;;;;;;;;5018964;28;20239;-68
2022/08/30 04:29:52;;;;;;;11.70;6.93;;;;;;;;;;5018344;28;20246;-68
2022/08/30 04:32:18;;;;;;;6.87;6.13;;;;;;;;;;5018643;28;20310;-67
2022/08/30 04:34:44;;;;;;;8.90;6.07;;;;;;;;;;5018556;28;20187;-68
2022/08/30 04:37:11;;;;;;;8.53;5.10;;;;;;;;;;5016153;28;20188;-68
2022/08/30 04:39:37;;;;;;;10.53;5.70;;;;;;;;;;5013191;28;20275;-67
2022/08/30 04:42:03;;;;;;;6.80;4.67;;;;;;;;;;5014442;28;20648;-67
2022/08/30 04:44:31;;;;;;;5.67;5.00;;;;;;;;;;5014269;28;20275;-67
2022/08/30 04:46:57;;;;;;;6.27;4.73;;;;;;;;;;5014402;28;20231;-68
2022/08/30 04:49:23;;;;;;;9.33;4.90;;;;;;;;;;5014374;28;20172;-68
2022/08/30 04:51:49;;;;;;;7.10;5.27;;;;;;;;;;5013982;28;20670;-67
2022/08/30 04:54:15;;;;;;;9.17;5.40;;;;;;;;;;5014203;28;20206;-68
2022/08/30 04:56:42;;;;;;;7.67;5.60;;;;;;;;;;5013966;28;20175;-67
2022/08/30 04:59:08;;;;;;;6.93;5.03;;;;;;;;;;5014185;28;20182;-67
2022/08/30 05:01:35;;;;;;;9.27;5.00;;;;;;;;;;5014041;28;20192;-67
2022/08/30 05:04:01;;;;;;;9.80;5.13;;;;;;;;;;5012439;28;20270;-68
2022/08/30 05:06:29;;;;;;;11.00;5.70;;;;;;;;;;5013839;28;20658;-67
2022/08/30 05:08:56;;;;;;;11.37;5.23;;;;;;;;;;5014045;28;20176;-67
2022/08/30 05:11:22;;;;;;;6.17;4.37;;;;;;;;;;5013509;28;20172;-67
2022/08/30 05:13:48;;;;;;;6.00;5.00;;;;;;;;;;5012621;28;20238;-67
2022/08/30 05:16:16;;;;;;;8.13;5.10;;;;;;;;;;5012633;28;20254;-67
2022/08/30 05:18:46;;;;;;;12.07;6.03;;;;;;;;;;5012454;28;20234;-67
2022/08/30 05:21:12;;;;;;;8.83;5.10;;;;;;;;;;5013703;28;20237;-67
2022/08/30 05:23:39;;;;;;;9.30;5.30;;;;;;;;;;5012361;28;20203;-67
2022/08/30 05:26:08;;;;;;;6.57;5.27;;;;;;;;;;5013848;28;20298;-67
2022/08/30 05:28:35;;;;;;;6.90;5.17;;;;;;;;;;5012441;28;20256;-67
2022/08/30 05:31:01;;;;;;;7.80;5.50;;;;;;;;;;5013446;28;20583;-68
2022/08/30 05:33:27;;;;;;;5.63;4.53;;;;;;;;;;5012215;28;20196;-68
2022/08/30 05:35:53;;;;;;;13.10;5.30;;;;;;;;;;5012234;28;20203;-68
2022/08/30 05:38:19;;;;;;;10.67;5.17;;;;;;;;;;5012115;28;20554;-67
2022/08/30 05:40:45;;;;;;;8.67;5.37;;;;;;;;;;5013644;28;20230;-67
2022/08/30 05:43:13;;;;;;;6.30;4.73;;;;;;;;;;5013732;28;20246;-67
2022/08/30 05:45:39;;;;;;;7.23;4.90;;;;;;;;;;5012072;28;20315;-67
2022/08/30 05:48:05;;;;;;;5.43;4.77;;;;;;;;;;5013617;28;20176;-67
2022/08/30 05:50:31;;;;;;;8.53;4.90;;;;;;;;;;5045570;23;20695;-67
2022/08/30 05:52:57;;;;;;;9.40;4.73;;;;;;;;;;5014565;28;20186;-68
2022/08/30 05:55:22;;;;;;;7.47;5.13;;;;;;;;;;5014239;28;20176;-68
2022/08/30 05:57:48;;;;;;;7.07;5.43;;;;;;;;;;5014950;28;20533;-69
2022/08/30 06:00:17;;;;;;;10.37;5.10;;;;;;;;;;5014656;28;20770;-68
2022/08/30 06:02:43;;;;;;;8.23;5.07;;;;;;;;;;5015156;28;20640;-68
2022/08/30 06:05:10;;;;;;;8.90;5.37;;;;;;;;;;5014287;28;20253;-69
2022/08/30 06:07:36;;;;;;;5.50;4.97;;;;;;;;;;5013032;28;20179;-67
2022/08/30 06:10:03;;;;;;;6.33;5.33;;;;;;;;;;5015072;28;20207;-68
2022/08/30 06:12:29;;;;;;;10.23;5.23;;;;;;;;;;5014327;28;20184;-68
2022/08/30 06:14:55;;;;;;;9.90;5.30;;;;;;;;;;5014592;28;20180;-68
2022/08/30 06:17:21;;;;;;;12.30;5.93;;;;;;;;;;5014418;28;20243;-68
2022/08/30 06:19:47;;;;;;;6.87;4.80;;;;;;;;;;5014244;28;20283;-71
2022/08/30 06:22:13;;;;;;;7.17;5.30;;;;;;;;;;5015109;28;20176;-68
2022/08/30 06:24:39;;;;;;;9.40;5.10;;;;;;;;;;5015219;28;20207;-67
2022/08/30 06:27:05;;;;;;;5.10;4.67;;;;;;;;;;5014809;28;20219;-66
2022/08/30 06:29:31;;;;;;;6.97;5.00;;;;;;;;;;5013440;28;20210;-67
2022/08/30 06:31:57;;;;;;;15.53;5.77;;;;;;;;;;5015402;28;20359;-71
2022/08/30 06:34:23;;;;;;;7.73;5.23;;;;;;;;;;5016263;28;20183;-67
2022/08/30 06:36:49;;;;;;;9.40;5.50;;;;;;;;;;5014294;28;20184;-68
2022/08/30 06:39:15;;;;;;;9.90;5.00;;;;;;;;;;5016276;28;20207;-68
2022/08/30 06:41:42;;;;;;;8.50;5.80;;;;;;;;;;5014264;28;20184;-68
2022/08/30 06:44:08;;;;;;;6.50;5.40;;;;;;;;;;5016629;28;20541;-68
2022/08/30 06:46:35;;;;;;;6.13;5.10;;;;;;;;;;5017327;28;20207;-68
2022/08/30 06:49:01;;;;;;;5.30;4.80;;;;;;;;;;5017358;28;20286;-68
2022/08/30 06:51:30;;;;;;;8.67;5.57;;;;;;;;;;5018743;28;20187;-69
2022/08/30 06:53:56;;;;;;;9.30;5.70;;;;;;;;;;5018505;28;20625;-68
2022/08/30 06:56:22;;;;;;;7.33;5.13;;;;;;;;;;5018049;28;20184;-68
2022/08/30 06:58:48;;;;;;;8.57;5.50;;;;;;;;;;5017202;28;20698;-70
2022/08/30 07:01:15;;;;;;;9.37;5.40;;;;;;;;;;5017886;28;20237;-68
2022/08/30 07:03:41;;;;;;;7.23;5.13;;;;;;;;;;5017683;28;20245;-67
2022/08/30 07:06:08;;;;;;;8.27;6.13;;;;;;;;;;5017559;28;20200;-67
2022/08/30 07:08:34;;;;;;;9.17;5.10;;;;;;;;;;5017734;28;20533;-67
2022/08/30 07:11:01;;;;;;;10.50;5.47;;;;;;;;;;5017308;28;20175;-67
2022/08/30 07:13:27;;;;;;;9.90;4.73;;;;;;;;;;5015399;28;20175;-67
2022/08/30 07:15:53;;;;;;;7.37;5.23;;;;;;;;;;5015864;28;20183;-67
2022/08/30 07:21:09;;;;;;;5.53;4.73;;;;;;;;;;5017110;28;20691;-67
2022/08/30 07:23:36;;;;;;;7.93;5.40;;;;;;;;;;5015938;28;20180;-68
2022/08/30 07:26:04;;;;;;;7.43;4.87;;;;;;;;;;5016830;28;20210;-69
2022/08/30 07:28:30;;;;;;;9.50;5.10;;;;;;;;;;5015950;28;20228;-68
2022/08/30 07:30:56;;;;;;;5.50;5.00;;;;;;;;;;5017202;28;20196;-68
2022/08/30 07:33:22;;;;;;;8.17;4.13;;;;;;;;;;5017618;28;20639;-68
2022/08/30 07:35:48;;;;;;;9.43;4.93;;;;;;;;;;5016938;28;20632;-69
2022/08/30 07:38:14;;;;;;;9.03;5.07;;;;;;;;;;5016853;28;20183;-68
2022/08/30 07:40:40;;;;;;;9.10;5.10;;;;;;;;;;5016816;28;20199;-67
2022/08/30 07:43:06;;;;;;;23.03;5.33;;;;;;;;;;5015457;28;20199;-70
2022/08/30 07:45:33;;;;;;;14.37;5.07;;;;;;;;;;5015864;28;20222;-69
2022/08/30 07:47:58;;;;;;;6.40;4.63;;;;;;;;;;5017175;28;20204;-67
2022/08/30 07:50:24;;;;;;;12.30;5.63;;;;;;;;;;5016349;28;20215;-69
2022/08/30 07:52:50;;;;;;;7.07;4.47;;;;;;;;;;5016374;28;20175;-68
2022/08/30 07:55:17;;;;;;;8.87;4.27;;;;;;;;;;5017149;28;20180;-68
2022/08/30 07:57:42;;;;;;;8.77;4.40;;;;;;;;;;5017106;28;20180;-68
2022/08/30 08:00:09;;;;;;;8.17;4.70;;;;;;;;;;5016687;28;20215;-68
2022/08/30 08:02:36;;;;;;;6.50;3.60;;;;;;;;;;5015885;28;20507;-68
2022/08/30 08:05:04;;;;;;;9.07;4.23;;;;;;;;;;5016863;28;20172;-68
2022/08/30 08:07:30;;;;;;;5.83;4.67;;;;;;;;;;5015357;28;20218;-68
2022/08/30 08:09:57;;;;;;;5.80;4.23;;;;;;;;;;5014841;28;20200;-68
2022/08/30 08:12:23;;;;;;;8.03;4.43;;;;;;;;;;5016623;28;20207;-68
2022/08/30 08:14:49;;;;;;;6.33;3.97;;;;;;;;;;5015043;28;20187;-68
2022/08/30 08:17:15;;;;;;;5.37;3.80;;;;;;;;;;5016556;28;20191;-69
2022/08/30 08:19:41;;;;;;;4.40;3.50;;;;;;;;;;5016340;28;20719;-69
2022/08/30 08:22:07;;;;;;;7.03;4.20;;;;;;;;;;5015117;28;20188;-68
2022/08/30 08:24:33;;;;;;;8.00;4.00;;;;;;;;;;5014928;28;20184;-69
2022/08/30 08:26:59;;;;;;;8.90;3.63;;;;;;;;;;5014738;28;20231;-68
2022/08/30 08:29:26;;;;;;;4.43;3.17;;;;;;;;;;5014717;28;20203;-68
2022/08/30 08:31:52;;;;;;;5.33;3.77;;;;;;;;;;5016075;28;20172;-68
2022/08/30 08:34:22;;;;;;;5.67;3.43;;;;;;;;;;5016569;28;20554;-69
2022/08/30 08:36:48;;;;;;;9.13;3.87;;;;;;;;;;5016730;28;20531;-68
2022/08/30 08:39:14;;;;;;;3.63;2.87;;;;;;;;;;5014795;28;20210;-68
2022/08/30 08:41:47;;;;;;;3.60;3.30;;;;;;;;;;5014668;28;20187;-68
2022/08/30 08:44:33;;;;;;;3.80;3.20;;;;;;;;;;5016606;28;20177;-68
2022/08/30 08:47:12;;;;;;;3.40;3.10;;;;;;;;;;5008982;28;20621;-69
2022/08/30 08:49:38;;;;;;;4.13;2.80;;;;;;;;;;5014892;28;20251;-69
2022/08/30 08:54:58;;;;;;;4.10;3.33;;;;;;;;;;5016860;28;20172;-67
2022/08/30 08:57:24;;;;;;;6.03;3.47;;;;;;;;;;5016049;28;20189;-67
2022/08/30 08:59:53;;;;;;;7.20;2.90;;;;;;;;;;5015203;28;20565;-68
2022/08/30 09:02:23;;;;;;;9.03;3.80;;;;;;;;;;5014081;28;20208;-67
2022/08/30 09:04:50;;;;;;;5.57;3.30;;;;;;;;;;5015592;28;20243;-68
2022/08/30 09:07:42;;;;;;;3.93;2.97;;;;;;;;;;5015204;28;20664;-66
2022/08/30 09:10:09;;;;;;;7.10;3.07;;;;;;;;;;5011058;28;20250;-67
2022/08/30 09:12:35;;;;;;;3.50;2.90;;;;;;;;;;5015440;28;20661;-67
2022/08/30 09:15:15;;;;;;;5.70;2.97;;;;;;;;;;5015466;28;20187;-68
2022/08/30 09:17:50;;;;;;;13.37;2.93;;;;;;;;;;5015915;28;20172;-67
2022/08/30 09:20:28;;;;;;;6.63;2.90;;;;;;;;;;5014605;28;20240;-68
2022/08/30 09:22:55;;;;;;;3.73;2.60;;;;;;;;;;5014794;28;20674;-68
2022/08/30 09:25:23;;;;;;;4.90;3.13;;;;;;;;;;5014983;28;20671;-67
2022/08/30 09:27:50;;;;;;;5.70;2.67;;;;;;;;;;5015253;28;20703;-67
2022/08/30 09:30:22;;;;;;;4.10;2.70;;;;;;;;;;5014083;28;20710;-66
2022/08/30 09:32:49;;;;;;;4.83;2.40;;;;;;;;;;5015242;28;20176;-70
2022/08/30 09:35:18;;;;;;;3.97;2.50;;;;;;;;;;5014756;28;20274;-68
2022/08/30 09:37:55;;;;;;;4.33;2.37;;;;;;;;;;5014530;28;20175;-67
2022/08/30 09:40:48;;;;;;;3.07;2.67;;;;;;;;;;5014587;28;20199;-68
2022/08/30 09:43:17;;;;;;;5.57;2.70;;;;;;;;;;5010430;28;20199;-68
2022/08/30 09:46:01;;;;;;;8.23;2.43;;;;;;;;;;5014249;28;20203;-68
2022/08/30 09:48:31;;;;;;;5.37;3.07;;;;;;;;;;5015013;28;20187;-68
2022/08/30 09:51:09;;;;;;;4.53;2.40;;;;;;;;;;5014507;28;20231;-68
2022/08/30 09:53:51;;;;;;;5.07;2.60;;;;;;;;;;5014917;28;20184;-68
2022/08/30 09:56:22;;;;;;;3.03;2.20;;;;;;;;;;5014850;28;20249;-70
2022/08/30 09:58:48;;;;;;;3.13;2.40;;;;;;;;;;5014798;28;20616;-69
2022/08/30 10:01:19;;;;;;;2.80;2.50;;;;;;;;;;5014134;28;20208;-70
2022/08/30 10:03:59;;;;;;;3.13;2.40;;;;;;;;;;5013989;28;20179;-68
2022/08/30 10:06:31;;;;;;;4.50;2.50;;;;;;;;;;5012606;28;20196;-69
2022/08/30 10:09:21;;;;;;;2.17;1.97;;;;;;;;;;5013860;28;20568;-69
2022/08/30 10:12:00;;;;;;;2.90;2.40;;;;;;;;;;4985508;28;20199;-69
2022/08/30 10:14:31;;;;;;;3.07;2.70;;;;;;;;;;5014043;28;20162;-69
2022/08/30 10:17:06;;;;;;;5.87;3.07;;;;;;;;;;5013671;28;20175;-69
2022/08/30 10:19:33;;;;;;;3.60;2.23;;;;;;;;;;5017848;28;20274;-69
2022/08/30 10:22:04;;;;;;;3.37;2.80;;;;;;;;;;5017880;28;20177;-70
2022/08/30 10:24:51;;;;;;;7.00;2.60;;;;;;;;;;5016647;28;20188;-68
2022/08/30 10:27:22;;;;;;;3.23;2.40;;;;;;;;;;5016169;28;20203;-69
2022/08/30 10:29:58;;;;;;;2.80;2.20;;;;;;;;;;5017023;28;20282;-70
2022/08/30 10:32:27;;;;;;;7.10;2.73;;;;;;;;;;5015936;28;20179;-69
2022/08/30 10:35:00;;;;;;;3.53;2.53;;;;;;;;;;5017823;28;20199;-72
2022/08/30 10:37:28;;;;;;;2.90;2.40;;;;;;;;;;5015626;28;20552;-70
2022/08/30 10:39:59;;;;;;;4.67;2.83;;;;;;;;;;5017141;28;20253;-70
2022/08/30 10:42:28;;;;;;;4.60;2.00;;;;;;;;;;5017239;28;20240;-70
2022/08/30 10:45:12;;;;;;;4.27;2.53;;;;;;;;;;5015666;28;20645;-70
2022/08/30 10:47:38;;;;;;;3.67;1.80;;;;;;;;;;5015591;28;20238;-69
2022/08/30 10:50:17;;;;;;;4.30;2.60;;;;;;;;;;5016636;28;20234;-70
2022/08/30 10:52:55;;;;;;;4.33;2.23;;;;;;;;;;5016995;28;20183;-70
2022/08/30 10:55:26;;;;;;;3.20;2.50;;;;;;;;;;5017117;28;20202;-70
2022/08/30 10:57:52;;;;;;;3.87;2.80;;;;;;;;;;5015577;28;20175;-70
2022/08/30 11:00:24;;;;;;;5.97;2.27;;;;;;;;;;5015090;28;20254;-71
2022/08/30 11:02:53;;;;;;;4.13;2.50;;;;;;;;;;5015301;28;20183;-71
2022/08/30 11:05:49;;;;;;;5.77;2.43;;;;;;;;;;5016726;28;20200;-69
2022/08/30 11:08:34;;;;;;;5.93;2.60;;;;;;;;;;5002577;28;20187;-69
2022/08/30 11:11:06;;;;;;;7.50;2.83;;;;;;;;;;5015196;28;20203;-70
2022/08/30 11:13:35;;;;;;;5.87;2.33;;;;;;;;;;5016758;28;20169;-71
2022/08/30 11:16:14;;;;;;;3.53;2.37;;;;;;;;;;5015215;28;20179;-71
2022/08/30 11:19:00;;;;;;;4.40;2.10;;;;;;;;;;5016126;28;20182;-70
2022/08/30 11:21:38;;;;;;;3.90;2.50;;;;;;;;;;5016466;28;20187;-72
2022/08/30 11:24:09;;;;;;;4.53;2.13;;;;;;;;;;5016372;28;20250;-71
2022/08/30 11:26:47;;;;;;;3.07;2.23;;;;;;;;;;5014784;28;20208;-70
2022/08/30 11:29:31;;;;;;;3.70;2.30;;;;;;;;;;5014976;28;20279;-71
2022/08/30 11:31:59;;;;;;;2.97;2.50;;;;;;;;;;5016164;28;20175;-71
2022/08/30 11:34:44;;;;;;;3.67;2.43;;;;;;;;;;5014943;28;20214;-72
2022/08/30 11:37:10;;;;;;;3.70;2.40;;;;;;;;;;5016055;28;20179;-70
2022/08/30 11:39:42;;;;;;;5.53;2.47;;;;;;;;;;5016299;28;20200;-70
2022/08/30 11:42:11;;;;;;;3.47;2.40;;;;;;;;;;5014621;28;20275;-71
2022/08/30 11:44:37;;;;;;;8.43;2.70;;;;;;;;;;5016071;28;20180;-71
2022/08/30 11:47:23;;;;;;;2.90;2.30;;;;;;;;;;5015660;28;20211;-71
2022/08/30 11:50:03;;;;;;;2.73;2.27;;;;;;;;;;5015395;28;20270;-71
2022/08/30 11:52:39;;;;;;;3.47;2.13;;;;;;;;;;5016001;28;20577;-71
2022/08/30 11:55:12;;;;;;;3.43;2.23;;;;;;;;;;5015511;28;20176;-71
2022/08/30 11:57:56;;;;;;;2.47;2.00;;;;;;;;;;5014288;28;20640;-71
2022/08/30 12:00:31;;;;;;;3.17;2.00;;;;;;;;;;5014079;28;20195;-71
2022/08/30 12:02:59;;;;;;;4.60;2.33;;;;;;;;;;5015231;28;20180;-70
2022/08/30 12:05:38;;;;;;;2.57;2.33;;;;;;;;;;5015770;28;20250;-71
2022/08/30 12:08:08;;;;;;;6.10;2.60;;;;;;;;;;5015545;28;20571;-71
2022/08/30 12:10:39;;;;;;;6.77;2.57;;;;;;;;;;5015431;28;20287;-71
2022/08/30 12:13:06;;;;;;;3.33;2.20;;;;;;;;;;5015142;28;20223;-71
2022/08/30 12:15:50;;;;;;;3.80;2.47;;;;;;;;;;5015286;28;20529;-71
2022/08/30 12:18:28;;;;;;;2.13;1.97;;;;;;;;;;5015285;28;20180;-71
2022/08/30 12:20:57;;;;;;;7.07;2.20;;;;;;;;;;5013943;28;20195;-71
2022/08/30 12:23:32;;;;;;;3.60;1.97;;;;;;;;;;5013825;28;20180;-71
2022/08/30 12:26:10;;;;;;;6.03;2.13;;;;;;;;;;5015284;28;20205;-71
2022/08/30 12:28:36;;;;;;;2.90;2.40;;;;;;;;;;5014987;28;20179;-70
2022/08/30 12:31:19;;;;;;;2.47;2.20;;;;;;;;;;5014960;28;20176;-71
2022/08/30 12:33:47;;;;;;;3.93;2.37;;;;;;;;;;5015003;28;20179;-71
2022/08/30 12:36:14;;;;;;;3.27;2.53;;;;;;;;;;5013434;28;20706;-72
2022/08/30 12:38:40;;;;;;;3.80;2.30;;;;;;;;;;5014854;28;20180;-71
2022/08/30 12:41:06;;;;;;;4.63;2.70;;;;;;;;;;5014738;28;20602;-71
2022/08/30 12:43:37;;;;;;;3.33;2.60;;;;;;;;;;5029753;23;20259;-68
2022/08/30 12:46:05;;;;;;;3.07;2.20;;;;;;;;;;5013001;28;20196;-68
2022/08/30 12:48:38;;;;;;;2.97;2.47;;;;;;;;;;5014384;28;20617;-68
2022/08/30 12:51:06;;;;;;;4.10;2.40;;;;;;;;;;5012917;28;20529;-68
2022/08/30 12:53:37;;;;;;;5.10;2.30;;;;;;;;;;5014095;28;20187;-68
2022/08/30 12:56:03;;;;;;;6.93;2.50;;;;;;;;;;5014447;28;20226;-68
2022/08/30 12:58:48;;;;;;;2.53;2.33;;;;;;;;;;5014212;28;20267;-68
2022/08/30 13:01:29;;;;;;;3.13;2.50;;;;;;;;;;5014025;28;20183;-68
2022/08/30 13:04:13;;;;;;;3.73;2.27;;;;;;;;;;5012688;28;20213;-68
2022/08/30 13:06:48;;;;;;;3.77;2.63;;;;;;;;;;5013910;28;20203;-68
2022/08/30 13:09:28;;;;;;;3.00;2.30;;;;;;;;;;5014058;28;20163;-68
2022/08/30 13:11:54;;;;;;;4.90;2.40;;;;;;;;;;5014068;28;20180;-68
2022/08/30 13:14:23;;;;;;;4.10;2.67;;;;;;;;;;5013772;28;20205;-68
2022/08/30 13:16:50;;;;;;;3.13;2.83;;;;;;;;;;5012911;28;20179;-68
2022/08/30 13:19:31;;;;;;;6.70;2.50;;;;;;;;;;5012762;28;20187;-67
2022/08/30 13:21:58;;;;;;;5.23;3.10;;;;;;;;;;5013006;28;20293;-68
2022/08/30 13:24:24;;;;;;;2.80;2.50;;;;;;;;;;5012611;28;20210;-68
2022/08/30 13:26:50;;;;;;;2.63;2.43;;;;;;;;;;5012277;28;20212;-68
2022/08/30 13:29:19;;;;;;;2.93;2.73;;;;;;;;;;5013650;28;20597;-67
2022/08/30 13:31:45;;;;;;;2.70;2.50;;;;;;;;;;5013654;28;20180;-68
2022/08/30 13:34:11;;;;;;;3.83;2.53;;;;;;;;;;5013494;28;20549;-67
2022/08/30 13:36:43;;;;;;;6.13;2.90;;;;;;;;;;5013615;28;20190;-67
2022/08/30 13:39:09;;;;;;;5.13;2.93;;;;;;;;;;5013927;28;20179;-68
2022/08/30 13:41:37;;;;;;;4.67;2.20;;;;;;;;;;5013805;28;20663;-68
2022/08/30 13:44:03;;;;;;;3.87;2.50;;;;;;;;;;5011940;28;20220;-67
2022/08/30 13:46:30;;;;;;;2.70;2.40;;;;;;;;;;5013448;28;20204;-68
2022/08/30 13:49:06;;;;;;;4.47;2.80;;;;;;;;;;5013495;28;20175;-67
2022/08/30 13:51:32;;;;;;;4.37;2.73;;;;;;;;;;5013306;28;20207;-67
2022/08/30 13:53:59;;;;;;;4.80;2.40;;;;;;;;;;5013431;28;20286;-67
2022/08/30 13:56:30;;;;;;;4.53;2.37;;;;;;;;;;5013628;28;20230;-67
2022/08/30 13:58:56;;;;;;;3.13;2.40;;;;;;;;;;5013852;28;20218;-67
2022/08/30 14:01:22;;;;;;;5.30;2.70;;;;;;;;;;5013864;28;20589;-67
2022/08/30 14:03:48;;;;;;;3.03;2.53;;;;;;;;;;5012022;28;20678;-67
2022/08/30 14:06:14;;;;;;;6.23;2.77;;;;;;;;;;5013664;28;20227;-67
2022/08/30 14:08:40;;;;;;;3.13;2.60;;;;;;;;;;5012339;28;20602;-67
2022/08/30 14:11:06;;;;;;;3.30;2.30;;;;;;;;;;5013815;28;20229;-67
2022/08/30 14:13:32;;;;;;;3.97;2.57;;;;;;;;;;5012235;28;20200;-67
2022/08/30 14:16:00;;;;;;;2.77;2.33;;;;;;;;;;5012264;28;20184;-67
2022/08/30 14:18:26;;;;;;;4.10;2.70;;;;;;;;;;5012192;28;20188;-67
2022/08/30 14:20:52;;;;;;;3.47;2.70;;;;;;;;;;5013590;28;20194;-67
2022/08/30 14:23:19;;;;;;;2.60;2.33;;;;;;;;;;5012082;28;20295;-67
2022/08/30 14:25:45;;;;;;;4.07;2.33;;;;;;;;;;5013599;28;20204;-68
2022/08/30 14:28:11;;;;;;;4.60;2.43;;;;;;;;;;5013193;28;20191;-67
2022/08/30 14:30:37;;;;;;;4.43;2.77;;;;;;;;;;5011924;28;20258;-67
2022/08/30 14:33:03;;;;;;;4.40;2.67;;;;;;;;;;5013054;28;20295;-67
2022/08/30 14:35:29;;;;;;;4.03;2.83;;;;;;;;;;5013715;28;20672;-67
2022/08/30 14:37:56;;;;;;;3.23;2.43;;;;;;;;;;5011871;28;20183;-67
2022/08/30 14:40:22;;;;;;;2.87;2.60;;;;;;;;;;5011756;28;20698;-67
2022/08/30 14:42:48;;;;;;;5.03;3.07;;;;;;;;;;5012856;28;20179;-67
2022/08/30 14:45:14;;;;;;;5.83;2.80;;;;;;;;;;5012811;28;20192;-67
2022/08/30 14:47:40;;;;;;;4.33;2.40;;;;;;;;;;5012730;28;20587;-67
2022/08/30 14:50:06;;;;;;;2.50;2.30;;;;;;;;;;5011522;28;20187;-67
2022/08/30 14:52:32;;;;;;;4.33;2.10;;;;;;;;;;5011493;28;20188;-67
2022/08/30 14:54:59;;;;;;;3.73;2.10;;;;;;;;;;5012789;28;20736;-67
2022/08/30 14:57:25;;;;;;;5.33;2.43;;;;;;;;;;5012738;28;20180;-67